sensor_id;sensor_type;location;lat;lon;timestamp;P1;durP1;ratioP1;P2;durP2;ratioP2
13234;SDS011;6683;48.506;9.050;2024-01-15T00:02:47;13.90;;;6.33;;
13234;SDS011;6683;48.506;9.050;2024-01-15T00:05:49;11.43;;;6.27;;
13234;SDS011;6683;48.506;9.050;2024-01-15T00:08:52;11.33;;;6.47;;
13234;SDS011;6683;48.506;9.050;2024-01-15T00:11:54;10.03;;;5.67;;
13234;SDS011;6683;48.506;9.050;2024-01-15T00:14:56;13.20;;;6.20;;
13234;SDS011;6683;48.506;9.050;2024-01-15T00:18:00;13.00;;;6.67;;
13234;SDS011;6683;48.506;9.050;2024-01-15T00:21:02;12.70;;;6.37;;
13234;SDS011;6683;48.506;9.050;2024-01-15T00:24:05;11.03;;;6.17;;
13234;SDS011;6683;48.506;9.050;2024-01-15T00:27:07;10.30;;;6.00;;
13234;SDS011;6683;48.506;9.050;2024-01-15T00:30:10;11.10;;;5.87;;
13234;SDS011;6683;48.506;9.050;2024-01-15T00:33:14;12.03;;;6.57;;
13234;SDS011;6683;48.506;9.050;2024-01-15T00:36:16;11.70;;;6.57;;
13234;SDS011;6683;48.506;9.050;2024-01-15T00:39:19;11.63;;;5.83;;
13234;SDS011;6683;48.506;9.050;2024-01-15T00:42:21;11.07;;;5.60;;
13234;SDS011;6683;48.506;9.050;2024-01-15T00:45:23;13.77;;;6.87;;
13234;SDS011;6683;48.506;9.050;2024-01-15T00:48:27;10.37;;;5.60;;
13234;SDS011;6683;48.506;9.050;2024-01-15T00:51:29;12.53;;;6.60;;
13234;SDS011;6683;48.506;9.050;2024-01-15T00:54:31;9.87;;;5.80;;
13234;SDS011;6683;48.506;9.050;2024-01-15T00:57:34;11.13;;;6.00;;
13234;SDS011;6683;48.506;9.050;2024-01-15T01:00:36;11.23;;;6.43;;
13234;SDS011;6683;48.506;9.050;2024-01-15T01:03:39;13.87;;;6.30;;
13234;SDS011;6683;48.506;9.050;2024-01-15T01:06:42;12.87;;;6.13;;
13234;SDS011;6683;48.506;9.050;2024-01-15T01:09:44;13.13;;;5.83;;
13234;SDS011;6683;48.506;9.050;2024-01-15T01:12:48;11.23;;;5.90;;
13234;SDS011;6683;48.506;9.050;2024-01-15T01:15:50;9.97;;;5.47;;
13234;SDS011;6683;48.506;9.050;2024-01-15T01:18:54;8.67;;;4.93;;
13234;SDS011;6683;48.506;9.050;2024-01-15T01:21:56;10.17;;;5.17;;
13234;SDS011;6683;48.506;9.050;2024-01-15T01:24:58;9.57;;;4.97;;
13234;SDS011;6683;48.506;9.050;2024-01-15T01:28:00;9.77;;;5.83;;
13234;SDS011;6683;48.506;9.050;2024-01-15T01:31:02;7.97;;;4.60;;
13234;SDS011;6683;48.506;9.050;2024-01-15T01:34:06;11.13;;;5.67;;
13234;SDS011;6683;48.506;9.050;2024-01-15T01:37:08;10.43;;;5.40;;
13234;SDS011;6683;48.506;9.050;2024-01-15T01:40:12;9.67;;;5.17;;
13234;SDS011;6683;48.506;9.050;2024-01-15T01:43:15;11.63;;;6.13;;
13234;SDS011;6683;48.506;9.050;2024-01-15T01:46:17;8.93;;;5.03;;
13234;SDS011;6683;48.506;9.050;2024-01-15T01:49:22;10.73;;;5.47;;
13234;SDS011;6683;48.506;9.050;2024-01-15T01:52:24;10.57;;;5.20;;
13234;SDS011;6683;48.506;9.050;2024-01-15T01:55:27;10.23;;;5.20;;
13234;SDS011;6683;48.506;9.050;2024-01-15T01:58:33;11.33;;;5.73;;
13234;SDS011;6683;48.506;9.050;2024-01-15T02:01:35;9.37;;;5.50;;
13234;SDS011;6683;48.506;9.050;2024-01-15T02:04:39;10.27;;;5.30;;
13234;SDS011;6683;48.506;9.050;2024-01-15T02:07:41;9.67;;;5.97;;
13234;SDS011;6683;48.506;9.050;2024-01-15T02:10:45;10.13;;;5.80;;
13234;SDS011;6683;48.506;9.050;2024-01-15T02:13:47;11.07;;;5.53;;
13234;SDS011;6683;48.506;9.050;2024-01-15T02:16:49;10.77;;;5.33;;
13234;SDS011;6683;48.506;9.050;2024-01-15T02:19:53;12.03;;;5.83;;
13234;SDS011;6683;48.506;9.050;2024-01-15T02:23:01;11.50;;;5.70;;
13234;SDS011;6683;48.506;9.050;2024-01-15T02:26:11;10.13;;;5.53;;
13234;SDS011;6683;48.506;9.050;2024-01-15T02:29:14;12.67;;;5.87;;
13234;SDS011;6683;48.506;9.050;2024-01-15T02:32:16;11.77;;;5.53;;
13234;SDS011;6683;48.506;9.050;2024-01-15T02:35:18;9.60;;;5.43;;
13234;SDS011;6683;48.506;9.050;2024-01-15T02:38:22;9.23;;;5.00;;
13234;SDS011;6683;48.506;9.050;2024-01-15T02:41:25;9.23;;;5.17;;
13234;SDS011;6683;48.506;9.050;2024-01-15T02:44:27;11.03;;;5.33;;
13234;SDS011;6683;48.506;9.050;2024-01-15T02:47:29;10.00;;;5.03;;
13234;SDS011;6683;48.506;9.050;2024-01-15T02:50:32;11.87;;;6.13;;
13234;SDS011;6683;48.506;9.050;2024-01-15T02:53:35;10.03;;;5.30;;
13234;SDS011;6683;48.506;9.050;2024-01-15T02:56:38;11.20;;;5.40;;
13234;SDS011;6683;48.506;9.050;2024-01-15T02:59:40;11.67;;;5.70;;
13234;SDS011;6683;48.506;9.050;2024-01-15T03:02:44;10.10;;;4.90;;
13234;SDS011;6683;48.506;9.050;2024-01-15T03:05:46;9.70;;;4.63;;
13234;SDS011;6683;48.506;9.050;2024-01-15T03:08:50;11.00;;;5.27;;
13234;SDS011;6683;48.506;9.050;2024-01-15T03:11:52;10.03;;;5.07;;
13234;SDS011;6683;48.506;9.050;2024-01-15T03:14:55;9.03;;;4.90;;
13234;SDS011;6683;48.506;9.050;2024-01-15T03:17:57;12.67;;;5.37;;
13234;SDS011;6683;48.506;9.050;2024-01-15T03:20:59;10.97;;;5.73;;
13234;SDS011;6683;48.506;9.050;2024-01-15T03:24:04;11.50;;;5.90;;
13234;SDS011;6683;48.506;9.050;2024-01-15T03:27:06;11.43;;;5.67;;
13234;SDS011;6683;48.506;9.050;2024-01-15T03:30:08;12.27;;;5.63;;
13234;SDS011;6683;48.506;9.050;2024-01-15T03:33:12;10.97;;;5.97;;
13234;SDS011;6683;48.506;9.050;2024-01-15T03:36:14;9.47;;;4.93;;
13234;SDS011;6683;48.506;9.050;2024-01-15T03:39:17;12.47;;;5.60;;
13234;SDS011;6683;48.506;9.050;2024-01-15T03:42:19;10.77;;;5.10;;
13234;SDS011;6683;48.506;9.050;2024-01-15T03:45:22;9.37;;;4.80;;
13234;SDS011;6683;48.506;9.050;2024-01-15T03:48:24;9.93;;;5.53;;
13234;SDS011;6683;48.506;9.050;2024-01-15T03:51:26;7.90;;;4.90;;
13234;SDS011;6683;48.506;9.050;2024-01-15T03:54:32;9.63;;;4.90;;
13234;SDS011;6683;48.506;9.050;2024-01-15T03:57:34;9.03;;;5.00;;
13234;SDS011;6683;48.506;9.050;2024-01-15T04:00:37;11.17;;;5.93;;
13234;SDS011;6683;48.506;9.050;2024-01-15T04:03:39;7.60;;;4.50;;
13234;SDS011;6683;48.506;9.050;2024-01-15T04:06:41;9.93;;;5.27;;
13234;SDS011;6683;48.506;9.050;2024-01-15T04:09:44;9.70;;;5.07;;
13234;SDS011;6683;48.506;9.050;2024-01-15T04:12:46;9.73;;;4.60;;
13234;SDS011;6683;48.506;9.050;2024-01-15T04:15:48;9.43;;;5.87;;
13234;SDS011;6683;48.506;9.050;2024-01-15T04:18:50;9.10;;;4.70;;
13234;SDS011;6683;48.506;9.050;2024-01-15T04:21:52;8.10;;;4.23;;
13234;SDS011;6683;48.506;9.050;2024-01-15T04:24:56;10.20;;;5.30;;
13234;SDS011;6683;48.506;9.050;2024-01-15T04:27:58;9.40;;;5.43;;
13234;SDS011;6683;48.506;9.050;2024-01-15T04:31:00;11.77;;;5.67;;
13234;SDS011;6683;48.506;9.050;2024-01-15T04:34:02;9.90;;;5.17;;
13234;SDS011;6683;48.506;9.050;2024-01-15T04:37:04;10.10;;;5.10;;
13234;SDS011;6683;48.506;9.050;2024-01-15T04:40:09;10.30;;;4.97;;
13234;SDS011;6683;48.506;9.050;2024-01-15T04:43:12;11.93;;;5.80;;
13234;SDS011;6683;48.506;9.050;2024-01-15T04:46:14;11.07;;;5.73;;
13234;SDS011;6683;48.506;9.050;2024-01-15T04:49:16;10.07;;;5.67;;
13234;SDS011;6683;48.506;9.050;2024-01-15T04:52:18;10.53;;;6.03;;
13234;SDS011;6683;48.506;9.050;2024-01-15T04:55:21;11.23;;;6.17;;
13234;SDS011;6683;48.506;9.050;2024-01-15T04:58:23;11.23;;;5.60;;
13234;SDS011;6683;48.506;9.050;2024-01-15T05:01:30;9.63;;;6.20;;
13234;SDS011;6683;48.506;9.050;2024-01-15T05:04:33;13.20;;;6.20;;
13234;SDS011;6683;48.506;9.050;2024-01-15T05:07:35;11.23;;;5.80;;
13234;SDS011;6683;48.506;9.050;2024-01-15T05:10:38;12.10;;;6.10;;
13234;SDS011;6683;48.506;9.050;2024-01-15T05:13:41;11.97;;;5.97;;
13234;SDS011;6683;48.506;9.050;2024-01-15T05:16:46;11.50;;;5.97;;
13234;SDS011;6683;48.506;9.050;2024-01-15T05:19:48;10.87;;;5.53;;
13234;SDS011;6683;48.506;9.050;2024-01-15T05:22:51;11.57;;;6.40;;
13234;SDS011;6683;48.506;9.050;2024-01-15T05:25:54;10.30;;;5.07;;
13234;SDS011;6683;48.506;9.050;2024-01-15T05:28:56;7.53;;;4.90;;
13234;SDS011;6683;48.506;9.050;2024-01-15T05:31:58;9.47;;;5.20;;
13234;SDS011;6683;48.506;9.050;2024-01-15T05:35:00;8.80;;;5.47;;
13234;SDS011;6683;48.506;9.050;2024-01-15T05:38:02;10.43;;;5.07;;
13234;SDS011;6683;48.506;9.050;2024-01-15T05:41:06;8.00;;;4.47;;
13234;SDS011;6683;48.506;9.050;2024-01-15T05:44:08;9.50;;;5.13;;
13234;SDS011;6683;48.506;9.050;2024-01-15T05:47:10;9.93;;;5.27;;
13234;SDS011;6683;48.506;9.050;2024-01-15T05:50:12;11.13;;;5.10;;
13234;SDS011;6683;48.506;9.050;2024-01-15T05:53:14;7.27;;;4.50;;
13234;SDS011;6683;48.506;9.050;2024-01-15T05:56:18;7.57;;;4.33;;
13234;SDS011;6683;48.506;9.050;2024-01-15T05:59:20;8.73;;;5.03;;
13234;SDS011;6683;48.506;9.050;2024-01-15T06:02:22;7.40;;;4.07;;
13234;SDS011;6683;48.506;9.050;2024-01-15T06:05:24;8.83;;;5.40;;
13234;SDS011;6683;48.506;9.050;2024-01-15T06:08:26;11.17;;;5.33;;
13234;SDS011;6683;48.506;9.050;2024-01-15T06:11:30;8.87;;;4.87;;
13234;SDS011;6683;48.506;9.050;2024-01-15T06:14:33;9.63;;;5.27;;
13234;SDS011;6683;48.506;9.050;2024-01-15T06:17:35;9.37;;;5.33;;
13234;SDS011;6683;48.506;9.050;2024-01-15T06:20:37;9.77;;;5.43;;
13234;SDS011;6683;48.506;9.050;2024-01-15T06:23:40;8.57;;;5.50;;
13234;SDS011;6683;48.506;9.050;2024-01-15T06:26:43;9.67;;;5.43;;
13234;SDS011;6683;48.506;9.050;2024-01-15T06:29:47;8.47;;;5.27;;
13234;SDS011;6683;48.506;9.050;2024-01-15T06:32:49;9.13;;;4.93;;
13234;SDS011;6683;48.506;9.050;2024-01-15T06:35:51;10.13;;;5.47;;
13234;SDS011;6683;48.506;9.050;2024-01-15T06:38:53;9.97;;;5.20;;
13234;SDS011;6683;48.506;9.050;2024-01-15T06:41:57;8.47;;;5.03;;
13234;SDS011;6683;48.506;9.050;2024-01-15T06:44:59;10.87;;;5.80;;
13234;SDS011;6683;48.506;9.050;2024-01-15T06:48:02;7.50;;;5.33;;
13234;SDS011;6683;48.506;9.050;2024-01-15T06:51:05;9.33;;;4.77;;
13234;SDS011;6683;48.506;9.050;2024-01-15T06:54:07;8.30;;;5.33;;
13234;SDS011;6683;48.506;9.050;2024-01-15T06:57:11;10.57;;;5.30;;
13234;SDS011;6683;48.506;9.050;2024-01-15T07:00:13;9.97;;;5.00;;
13234;SDS011;6683;48.506;9.050;2024-01-15T07:03:17;6.97;;;4.67;;
13234;SDS011;6683;48.506;9.050;2024-01-15T07:06:19;8.47;;;5.03;;
13234;SDS011;6683;48.506;9.050;2024-01-15T07:09:21;7.63;;;4.57;;
13234;SDS011;6683;48.506;9.050;2024-01-15T07:12:24;8.97;;;5.10;;
13234;SDS011;6683;48.506;9.050;2024-01-15T07:15:26;7.67;;;4.87;;
13234;SDS011;6683;48.506;9.050;2024-01-15T07:18:28;7.07;;;4.37;;
13234;SDS011;6683;48.506;9.050;2024-01-15T07:21:30;7.97;;;4.23;;
13234;SDS011;6683;48.506;9.050;2024-01-15T07:24:32;7.57;;;4.67;;
13234;SDS011;6683;48.506;9.050;2024-01-15T07:27:36;6.30;;;3.90;;
13234;SDS011;6683;48.506;9.050;2024-01-15T07:30:38;5.47;;;3.70;;
13234;SDS011;6683;48.506;9.050;2024-01-15T07:33:40;6.17;;;3.43;;
13234;SDS011;6683;48.506;9.050;2024-01-15T07:36:43;6.97;;;4.17;;
13234;SDS011;6683;48.506;9.050;2024-01-15T07:39:46;5.97;;;4.20;;
13234;SDS011;6683;48.506;9.050;2024-01-15T07:42:49;7.03;;;4.00;;
13234;SDS011;6683;48.506;9.050;2024-01-15T07:45:51;7.13;;;4.17;;
13234;SDS011;6683;48.506;9.050;2024-01-15T07:48:53;7.07;;;4.17;;
13234;SDS011;6683;48.506;9.050;2024-01-15T07:51:57;8.60;;;4.60;;
13234;SDS011;6683;48.506;9.050;2024-01-15T07:54:59;7.50;;;4.43;;
13234;SDS011;6683;48.506;9.050;2024-01-15T07:58:05;6.90;;;3.97;;
13234;SDS011;6683;48.506;9.050;2024-01-15T08:01:07;8.10;;;4.50;;
13234;SDS011;6683;48.506;9.050;2024-01-15T08:04:09;7.90;;;3.90;;
13234;SDS011;6683;48.506;9.050;2024-01-15T08:07:12;7.33;;;4.20;;
13234;SDS011;6683;48.506;9.050;2024-01-15T08:10:14;6.13;;;3.57;;
13234;SDS011;6683;48.506;9.050;2024-01-15T08:13:18;5.40;;;3.27;;
13234;SDS011;6683;48.506;9.050;2024-01-15T08:16:20;6.33;;;3.73;;
13234;SDS011;6683;48.506;9.050;2024-01-15T08:19:24;4.93;;;3.33;;
13234;SDS011;6683;48.506;9.050;2024-01-15T08:22:26;5.57;;;3.00;;
13234;SDS011;6683;48.506;9.050;2024-01-15T08:25:28;5.70;;;3.03;;
13234;SDS011;6683;48.506;9.050;2024-01-15T08:28:32;5.90;;;3.50;;
13234;SDS011;6683;48.506;9.050;2024-01-15T08:31:34;5.37;;;3.17;;
13234;SDS011;6683;48.506;9.050;2024-01-15T08:34:36;6.13;;;3.30;;
13234;SDS011;6683;48.506;9.050;2024-01-15T08:37:38;5.77;;;3.17;;
13234;SDS011;6683;48.506;9.050;2024-01-15T08:40:40;4.13;;;2.70;;
13234;SDS011;6683;48.506;9.050;2024-01-15T08:43:44;3.37;;;2.17;;
13234;SDS011;6683;48.506;9.050;2024-01-15T08:46:46;4.37;;;2.73;;
13234;SDS011;6683;48.506;9.050;2024-01-15T08:49:48;3.97;;;2.43;;
13234;SDS011;6683;48.506;9.050;2024-01-15T08:52:50;4.23;;;2.40;;
13234;SDS011;6683;48.506;9.050;2024-01-15T08:55:52;3.97;;;2.60;;
13234;SDS011;6683;48.506;9.050;2024-01-15T08:58:56;3.47;;;2.67;;
13234;SDS011;6683;48.506;9.050;2024-01-15T09:01:58;3.90;;;2.60;;
13234;SDS011;6683;48.506;9.050;2024-01-15T09:05:00;4.57;;;2.60;;
13234;SDS011;6683;48.506;9.050;2024-01-15T09:08:04;4.27;;;2.30;;
13234;SDS011;6683;48.506;9.050;2024-01-15T09:11:06;4.07;;;2.40;;
13234;SDS011;6683;48.506;9.050;2024-01-15T09:14:10;2.67;;;2.07;;
13234;SDS011;6683;48.506;9.050;2024-01-15T09:17:13;4.03;;;2.40;;
13234;SDS011;6683;48.506;9.050;2024-01-15T09:20:15;4.13;;;2.37;;
13234;SDS011;6683;48.506;9.050;2024-01-15T09:23:18;4.57;;;2.50;;
13234;SDS011;6683;48.506;9.050;2024-01-15T09:26:20;5.97;;;2.60;;
13234;SDS011;6683;48.506;9.050;2024-01-15T09:29:25;4.13;;;2.67;;
13234;SDS011;6683;48.506;9.050;2024-01-15T09:32:27;4.93;;;3.00;;
13234;SDS011;6683;48.506;9.050;2024-01-15T09:35:29;6.47;;;2.50;;
13234;SDS011;6683;48.506;9.050;2024-01-15T09:38:31;2.37;;;1.57;;
13234;SDS011;6683;48.506;9.050;2024-01-15T09:41:33;3.83;;;2.00;;
13234;SDS011;6683;48.506;9.050;2024-01-15T09:44:37;3.87;;;2.03;;
13234;SDS011;6683;48.506;9.050;2024-01-15T09:47:40;6.17;;;2.80;;
13234;SDS011;6683;48.506;9.050;2024-01-15T09:50:43;3.80;;;2.37;;
13234;SDS011;6683;48.506;9.050;2024-01-15T09:53:45;4.77;;;2.57;;
13234;SDS011;6683;48.506;9.050;2024-01-15T09:56:48;3.03;;;1.90;;
13234;SDS011;6683;48.506;9.050;2024-01-15T09:59:51;4.97;;;2.43;;
13234;SDS011;6683;48.506;9.050;2024-01-15T10:02:54;3.17;;;1.60;;
13234;SDS011;6683;48.506;9.050;2024-01-15T10:05:57;12.13;;;2.73;;
13234;SDS011;6683;48.506;9.050;2024-01-15T10:09:01;1.70;;;1.30;;
13234;SDS011;6683;48.506;9.050;2024-01-15T10:12:04;7.07;;;2.87;;
13234;SDS011;6683;48.506;9.050;2024-01-15T10:15:10;4.50;;;2.80;;
13234;SDS011;6683;48.506;9.050;2024-01-15T10:18:13;2.50;;;1.87;;
13234;SDS011;6683;48.506;9.050;2024-01-15T10:21:15;2.73;;;2.27;;
13234;SDS011;6683;48.506;9.050;2024-01-15T10:24:17;2.53;;;2.00;;
13234;SDS011;6683;48.506;9.050;2024-01-15T10:27:19;2.27;;;1.50;;
13234;SDS011;6683;48.506;9.050;2024-01-15T10:30:22;2.03;;;1.50;;
13234;SDS011;6683;48.506;9.050;2024-01-15T10:33:26;1.70;;;1.40;;
13234;SDS011;6683;48.506;9.050;2024-01-15T10:36:28;2.97;;;1.50;;
13234;SDS011;6683;48.506;9.050;2024-01-15T10:39:31;2.27;;;1.30;;
13234;SDS011;6683;48.506;9.050;2024-01-15T10:42:33;1.63;;;1.40;;
13234;SDS011;6683;48.506;9.050;2024-01-15T10:45:37;3.13;;;1.60;;
13234;SDS011;6683;48.506;9.050;2024-01-15T10:48:39;2.80;;;1.40;;
13234;SDS011;6683;48.506;9.050;2024-01-15T10:51:41;5.43;;;1.60;;
13234;SDS011;6683;48.506;9.050;2024-01-15T10:54:43;3.83;;;1.63;;
13234;SDS011;6683;48.506;9.050;2024-01-15T10:57:46;2.07;;;1.27;;
13234;SDS011;6683;48.506;9.050;2024-01-15T11:00:51;4.13;;;1.70;;
13234;SDS011;6683;48.506;9.050;2024-01-15T11:03:54;2.27;;;1.50;;
13234;SDS011;6683;48.506;9.050;2024-01-15T11:06:57;3.70;;;1.40;;
13234;SDS011;6683;48.506;9.050;2024-01-15T11:09:59;7.63;;;1.80;;
13234;SDS011;6683;48.506;9.050;2024-01-15T11:13:07;1.97;;;1.30;;
13234;SDS011;6683;48.506;9.050;2024-01-15T11:16:13;2.97;;;1.50;;
13234;SDS011;6683;48.506;9.050;2024-01-15T11:19:16;6.27;;;1.30;;
13234;SDS011;6683;48.506;9.050;2024-01-15T11:25:50;2.63;;;1.53;;
13234;SDS011;6683;48.506;9.050;2024-01-15T11:28:52;4.37;;;1.70;;
13234;SDS011;6683;48.506;9.050;2024-01-15T11:31:57;2.87;;;1.70;;
13234;SDS011;6683;48.506;9.050;2024-01-15T11:35:02;3.97;;;2.00;;
13234;SDS011;6683;48.506;9.050;2024-01-15T11:38:08;4.40;;;2.13;;
13234;SDS011;6683;48.506;9.050;2024-01-15T11:41:13;2.27;;;1.60;;
13234;SDS011;6683;48.506;9.050;2024-01-15T11:44:16;2.63;;;2.03;;
13234;SDS011;6683;48.506;9.050;2024-01-15T11:47:24;2.63;;;1.80;;
13234;SDS011;6683;48.506;9.050;2024-01-15T11:51:00;3.80;;;2.37;;
13234;SDS011;6683;48.506;9.050;2024-01-15T11:54:04;3.97;;;1.97;;
13234;SDS011;6683;48.506;9.050;2024-01-15T11:57:12;3.10;;;1.90;;
13234;SDS011;6683;48.506;9.050;2024-01-15T12:00:26;3.07;;;1.80;;
13234;SDS011;6683;48.506;9.050;2024-01-15T12:03:31;2.63;;;1.90;;
13234;SDS011;6683;48.506;9.050;2024-01-15T12:06:34;2.27;;;1.67;;
13234;SDS011;6683;48.506;9.050;2024-01-15T12:09:41;3.17;;;1.90;;
13234;SDS011;6683;48.506;9.050;2024-01-15T12:12:56;4.60;;;2.87;;
13234;SDS011;6683;48.506;9.050;2024-01-15T12:16:01;3.33;;;2.47;;
13234;SDS011;6683;48.506;9.050;2024-01-15T12:19:05;4.03;;;2.43;;
13234;SDS011;6683;48.506;9.050;2024-01-15T12:22:07;3.67;;;2.30;;
13234;SDS011;6683;48.506;9.050;2024-01-15T12:25:10;3.63;;;2.17;;
13234;SDS011;6683;48.506;9.050;2024-01-15T12:28:12;4.13;;;2.50;;
13234;SDS011;6683;48.506;9.050;2024-01-15T12:31:14;2.60;;;1.77;;
13234;SDS011;6683;48.506;9.050;2024-01-15T12:34:18;4.87;;;2.10;;
13234;SDS011;6683;48.506;9.050;2024-01-15T12:37:21;4.23;;;2.30;;
13234;SDS011;6683;48.506;9.050;2024-01-15T12:40:23;4.20;;;2.27;;
13234;SDS011;6683;48.506;9.050;2024-01-15T12:43:25;4.83;;;2.60;;
13234;SDS011;6683;48.506;9.050;2024-01-15T12:46:28;4.63;;;2.70;;
13234;SDS011;6683;48.506;9.050;2024-01-15T12:49:31;3.87;;;2.57;;
13234;SDS011;6683;48.506;9.050;2024-01-15T12:52:33;5.07;;;3.33;;
13234;SDS011;6683;48.506;9.050;2024-01-15T12:55:37;5.17;;;2.83;;
13234;SDS011;6683;48.506;9.050;2024-01-15T12:58:39;4.23;;;2.83;;
13234;SDS011;6683;48.506;9.050;2024-01-15T13:01:41;4.57;;;2.57;;
13234;SDS011;6683;48.506;9.050;2024-01-15T13:04:45;4.83;;;2.83;;
13234;SDS011;6683;48.506;9.050;2024-01-15T13:07:47;4.30;;;2.90;;
13234;SDS011;6683;48.506;9.050;2024-01-15T13:10:49;4.67;;;2.80;;
13234;SDS011;6683;48.506;9.050;2024-01-15T13:13:56;4.87;;;2.97;;
13234;SDS011;6683;48.506;9.050;2024-01-15T13:16:58;5.23;;;2.70;;
13234;SDS011;6683;48.506;9.050;2024-01-15T13:20:02;4.23;;;2.70;;
13234;SDS011;6683;48.506;9.050;2024-01-15T13:23:05;3.63;;;3.03;;
13234;SDS011;6683;48.506;9.050;2024-01-15T13:26:07;3.90;;;2.87;;
13234;SDS011;6683;48.506;9.050;2024-01-15T13:29:09;6.10;;;3.33;;
13234;SDS011;6683;48.506;9.050;2024-01-15T13:32:11;5.37;;;2.93;;
13234;SDS011;6683;48.506;9.050;2024-01-15T13:35:23;6.00;;;3.30;;
13234;SDS011;6683;48.506;9.050;2024-01-15T13:38:26;4.33;;;2.70;;
13234;SDS011;6683;48.506;9.050;2024-01-15T13:41:31;4.20;;;2.83;;
13234;SDS011;6683;48.506;9.050;2024-01-15T13:44:35;6.90;;;2.80;;
13234;SDS011;6683;48.506;9.050;2024-01-15T13:47:37;4.57;;;2.70;;
13234;SDS011;6683;48.506;9.050;2024-01-15T13:50:40;4.23;;;2.90;;
13234;SDS011;6683;48.506;9.050;2024-01-15T13:53:43;4.87;;;2.70;;
13234;SDS011;6683;48.506;9.050;2024-01-15T13:56:45;5.23;;;3.60;;
13234;SDS011;6683;48.506;9.050;2024-01-15T13:59:47;4.83;;;3.30;;
13234;SDS011;6683;48.506;9.050;2024-01-15T14:02:50;4.27;;;2.87;;
13234;SDS011;6683;48.506;9.050;2024-01-15T14:05:53;4.80;;;3.07;;
13234;SDS011;6683;48.506;9.050;2024-01-15T14:08:56;4.07;;;2.90;;
13234;SDS011;6683;48.506;9.050;2024-01-15T14:11:58;4.40;;;3.00;;
13234;SDS011;6683;48.506;9.050;2024-01-15T14:15:00;4.00;;;2.90;;
13234;SDS011;6683;48.506;9.050;2024-01-15T14:18:03;5.07;;;2.73;;
13234;SDS011;6683;48.506;9.050;2024-01-15T14:21:07;3.80;;;2.90;;
13234;SDS011;6683;48.506;9.050;2024-01-15T14:24:10;4.77;;;2.63;;
13234;SDS011;6683;48.506;9.050;2024-01-15T14:27:13;4.23;;;2.87;;
13234;SDS011;6683;48.506;9.050;2024-01-15T14:30:15;4.97;;;3.00;;
13234;SDS011;6683;48.506;9.050;2024-01-15T14:33:17;3.60;;;2.67;;
13234;SDS011;6683;48.506;9.050;2024-01-15T14:36:22;4.83;;;3.00;;
13234;SDS011;6683;48.506;9.050;2024-01-15T14:39:24;4.33;;;3.00;;
13234;SDS011;6683;48.506;9.050;2024-01-15T14:42:26;4.03;;;2.63;;
13234;SDS011;6683;48.506;9.050;2024-01-15T14:45:29;3.00;;;2.53;;
13234;SDS011;6683;48.506;9.050;2024-01-15T14:48:31;4.10;;;2.53;;
13234;SDS011;6683;48.506;9.050;2024-01-15T14:51:34;4.63;;;3.00;;
13234;SDS011;6683;48.506;9.050;2024-01-15T14:54:36;5.40;;;3.03;;
13234;SDS011;6683;48.506;9.050;2024-01-15T14:57:38;3.73;;;2.70;;
13234;SDS011;6683;48.506;9.050;2024-01-15T15:00:40;3.73;;;2.57;;
13234;SDS011;6683;48.506;9.050;2024-01-15T15:03:43;4.03;;;2.60;;
13234;SDS011;6683;48.506;9.050;2024-01-15T15:06:46;4.43;;;2.63;;
13234;SDS011;6683;48.506;9.050;2024-01-15T15:09:48;4.43;;;2.63;;
13234;SDS011;6683;48.506;9.050;2024-01-15T15:12:51;5.23;;;2.97;;
13234;SDS011;6683;48.506;9.050;2024-01-15T15:15:53;3.60;;;2.80;;
13234;SDS011;6683;48.506;9.050;2024-01-15T15:18:55;2.77;;;2.17;;
13234;SDS011;6683;48.506;9.050;2024-01-15T15:21:59;4.07;;;2.53;;
13234;SDS011;6683;48.506;9.050;2024-01-15T15:25:01;2.40;;;2.20;;
13234;SDS011;6683;48.506;9.050;2024-01-15T15:28:03;3.17;;;2.40;;
13234;SDS011;6683;48.506;9.050;2024-01-15T15:31:06;3.73;;;2.10;;
13234;SDS011;6683;48.506;9.050;2024-01-15T15:34:08;2.63;;;1.70;;
13234;SDS011;6683;48.506;9.050;2024-01-15T15:37:12;3.00;;;1.90;;
13234;SDS011;6683;48.506;9.050;2024-01-15T15:40:16;1.70;;;1.50;;
13234;SDS011;6683;48.506;9.050;2024-01-15T15:43:18;2.23;;;1.67;;
13234;SDS011;6683;48.506;9.050;2024-01-15T15:46:20;1.97;;;1.40;;
13234;SDS011;6683;48.506;9.050;2024-01-15T15:49:23;1.93;;;1.30;;
13234;SDS011;6683;48.506;9.050;2024-01-15T15:52:26;1.93;;;1.70;;
13234;SDS011;6683;48.506;9.050;2024-01-15T15:55:28;1.50;;;1.20;;
13234;SDS011;6683;48.506;9.050;2024-01-15T15:58:30;1.93;;;1.10;;
13234;SDS011;6683;48.506;9.050;2024-01-15T16:01:32;1.37;;;1.03;;
13234;SDS011;6683;48.506;9.050;2024-01-15T16:04:34;1.60;;;1.50;;
13234;SDS011;6683;48.506;9.050;2024-01-15T16:07:38;1.40;;;1.07;;
13234;SDS011;6683;48.506;9.050;2024-01-15T16:10:40;2.03;;;1.20;;
13234;SDS011;6683;48.506;9.050;2024-01-15T16:13:42;1.40;;;1.20;;
13234;SDS011;6683;48.506;9.050;2024-01-15T16:16:45;1.43;;;1.33;;
13234;SDS011;6683;48.506;9.050;2024-01-15T16:19:47;2.53;;;1.60;;
13234;SDS011;6683;48.506;9.050;2024-01-15T16:22:50;2.40;;;1.23;;
13234;SDS011;6683;48.506;9.050;2024-01-15T16:25:52;1.73;;;1.60;;
13234;SDS011;6683;48.506;9.050;2024-01-15T16:28:54;1.87;;;1.70;;
13234;SDS011;6683;48.506;9.050;2024-01-15T16:31:57;2.00;;;1.70;;
13234;SDS011;6683;48.506;9.050;2024-01-15T16:34:59;2.87;;;1.37;;
13234;SDS011;6683;48.506;9.050;2024-01-15T16:38:03;2.00;;;1.50;;
13234;SDS011;6683;48.506;9.050;2024-01-15T16:41:05;2.43;;;1.70;;
13234;SDS011;6683;48.506;9.050;2024-01-15T16:44:08;4.03;;;2.00;;
13234;SDS011;6683;48.506;9.050;2024-01-15T16:47:10;2.60;;;1.60;;
13234;SDS011;6683;48.506;9.050;2024-01-15T16:50:12;1.90;;;1.60;;
13234;SDS011;6683;48.506;9.050;2024-01-15T16:53:16;2.57;;;1.83;;
13234;SDS011;6683;48.506;9.050;2024-01-15T16:56:18;2.23;;;1.60;;
13234;SDS011;6683;48.506;9.050;2024-01-15T16:59:20;1.73;;;1.40;;
13234;SDS011;6683;48.506;9.050;2024-01-15T17:02:22;2.57;;;1.80;;
13234;SDS011;6683;48.506;9.050;2024-01-15T17:05:25;2.03;;;1.37;;
13234;SDS011;6683;48.506;9.050;2024-01-15T17:08:28;3.07;;;1.70;;
13234;SDS011;6683;48.506;9.050;2024-01-15T17:11:31;2.07;;;1.53;;
13234;SDS011;6683;48.506;9.050;2024-01-15T17:14:33;2.00;;;1.80;;
13234;SDS011;6683;48.506;9.050;2024-01-15T17:17:35;2.67;;;2.00;;
13234;SDS011;6683;48.506;9.050;2024-01-15T17:20:37;3.40;;;1.93;;
13234;SDS011;6683;48.506;9.050;2024-01-15T17:23:42;1.57;;;1.47;;
13234;SDS011;6683;48.506;9.050;2024-01-15T17:26:44;3.07;;;1.80;;
13234;SDS011;6683;48.506;9.050;2024-01-15T17:29:47;2.50;;;1.73;;
13234;SDS011;6683;48.506;9.050;2024-01-15T17:32:49;3.70;;;2.20;;
13234;SDS011;6683;48.506;9.050;2024-01-15T17:35:51;2.80;;;1.97;;
13234;SDS011;6683;48.506;9.050;2024-01-15T17:38:55;3.77;;;2.00;;
13234;SDS011;6683;48.506;9.050;2024-01-15T17:41:58;3.30;;;1.93;;
13234;SDS011;6683;48.506;9.050;2024-01-15T17:45:00;2.80;;;2.10;;
13234;SDS011;6683;48.506;9.050;2024-01-15T17:48:04;3.50;;;2.10;;
13234;SDS011;6683;48.506;9.050;2024-01-15T17:51:08;4.47;;;2.30;;
13234;SDS011;6683;48.506;9.050;2024-01-15T17:54:12;2.70;;;1.80;;
13234;SDS011;6683;48.506;9.050;2024-01-15T17:57:14;2.43;;;1.90;;
13234;SDS011;6683;48.506;9.050;2024-01-15T18:00:16;3.30;;;1.97;;
13234;SDS011;6683;48.506;9.050;2024-01-15T18:03:19;2.87;;;2.20;;
13234;SDS011;6683;48.506;9.050;2024-01-15T18:06:21;2.90;;;1.80;;
13234;SDS011;6683;48.506;9.050;2024-01-15T18:09:25;3.13;;;2.23;;
13234;SDS011;6683;48.506;9.050;2024-01-15T18:12:27;2.97;;;2.00;;
13234;SDS011;6683;48.506;9.050;2024-01-15T18:15:29;3.30;;;2.00;;
13234;SDS011;6683;48.506;9.050;2024-01-15T18:18:31;4.47;;;2.10;;
13234;SDS011;6683;48.506;9.050;2024-01-15T18:21:33;2.97;;;2.00;;
13234;SDS011;6683;48.506;9.050;2024-01-15T18:24:37;3.17;;;2.03;;
13234;SDS011;6683;48.506;9.050;2024-01-15T18:27:39;2.73;;;1.67;;
13234;SDS011;6683;48.506;9.050;2024-01-15T18:30:41;2.43;;;2.10;;
13234;SDS011;6683;48.506;9.050;2024-01-15T18:33:43;3.07;;;2.07;;
13234;SDS011;6683;48.506;9.050;2024-01-15T18:36:45;3.00;;;2.17;;
13234;SDS011;6683;48.506;9.050;2024-01-15T18:39:49;4.20;;;2.40;;